sensor_id;sensor_type;location;lat;lon;timestamp;pressure;altitude;pressure_sealevel;temperature;humidity
15050;BME280;7622;42.724;23.250;2023-01-26T00:02:17;95112.47;;;-0.29;100.00
15050;BME280;7622;42.724;23.250;2023-01-26T00:04:44;95121.34;;;-0.38;100.00
15050;BME280;7622;42.724;23.250;2023-01-26T00:07:11;95097.34;;;-0.53;100.00
15050;BME280;7622;42.724;23.250;2023-01-26T00:09:39;95113.81;;;-0.41;100.00
15050;BME280;7622;42.724;23.250;2023-01-26T00:12:10;95098.09;;;-0.51;100.00
15050;BME280;7622;42.724;23.250;2023-01-26T00:14:39;95114.78;;;-0.44;100.00
15050;BME280;7622;42.724;23.250;2023-01-26T00:19:52;95135.84;;;-0.20;100.00
15050;BME280;7622;42.724;23.250;2023-01-26T00:22:19;95134.69;;;-0.13;100.00
15050;BME280;7622;42.724;23.250;2023-01-26T00:24:46;95126.19;;;-0.32;100.00
15050;BME280;7622;42.724;23.250;2023-01-26T00:27:14;95040.22;;;-0.69;100.00
15050;BME280;7622;42.724;23.250;2023-01-26T00:29:41;95136.94;;;-0.25;100.00
15050;BME280;7622;42.724;23.250;2023-01-26T00:32:08;95103.59;;;-0.41;100.00
15050;BME280;7622;42.724;23.250;2023-01-26T00:34:34;95087.28;;;-0.37;100.00
15050;BME280;7622;42.724;23.250;2023-01-26T00:37:01;95087.97;;;-0.33;100.00
15050;BME280;7622;42.724;23.250;2023-01-26T00:39:28;95083.69;;;-0.52;100.00
15050;BME280;7622;42.724;23.250;2023-01-26T00:41:55;95075.41;;;-0.57;100.00
15050;BME280;7622;42.724;23.250;2023-01-26T00:44:41;95060.38;;;-0.63;100.00
15050;BME280;7622;42.724;23.250;2023-01-26T00:47:10;95093.22;;;-0.36;100.00
15050;BME280;7622;42.724;23.250;2023-01-26T00:49:37;95078.88;;;-0.39;100.00
15050;BME280;7622;42.724;23.250;2023-01-26T00:52:04;95065.44;;;-0.43;100.00
15050;BME280;7622;42.724;23.250;2023-01-26T00:54:31;95085.53;;;-0.55;100.00
15050;BME280;7622;42.724;23.250;2023-01-26T00:57:00;95087.34;;;-0.57;100.00
15050;BME280;7622;42.724;23.250;2023-01-26T00:59:29;95083.06;;;-0.57;100.00
15050;BME280;7622;42.724;23.250;2023-01-26T01:02:02;95074.88;;;-0.45;100.00
15050;BME280;7622;42.724;23.250;2023-01-26T01:04:29;95019.69;;;-0.66;100.00
15050;BME280;7622;42.724;23.250;2023-01-26T01:06:56;95081.13;;;-0.52;100.00
15050;BME280;7622;42.724;23.250;2023-01-26T01:09:23;95064.72;;;-0.46;100.00
15050;BME280;7622;42.724;23.250;2023-01-26T01:11:50;95068.25;;;-0.49;100.00
15050;BME280;7622;42.724;23.250;2023-01-26T01:14:17;95028.78;;;-0.60;100.00
15050;BME280;7622;42.724;23.250;2023-01-26T01:16:44;95060.88;;;-0.36;100.00
15050;BME280;7622;42.724;23.250;2023-01-26T01:19:13;95025.47;;;-0.81;100.00
15050;BME280;7622;42.724;23.250;2023-01-26T01:21:41;95074.44;;;-0.54;100.00
15050;BME280;7622;42.724;23.250;2023-01-26T01:24:10;95029.91;;;-0.66;100.00
15050;BME280;7622;42.724;23.250;2023-01-26T01:26:37;95039.81;;;-0.60;100.00
15050;BME280;7622;42.724;23.250;2023-01-26T01:29:05;95075.00;;;-0.48;100.00
15050;BME280;7622;42.724;23.250;2023-01-26T01:31:32;95063.00;;;-0.64;100.00
15050;BME280;7622;42.724;23.250;2023-01-26T01:33:59;95051.06;;;-0.64;100.00
15050;BME280;7622;42.724;23.250;2023-01-26T01:36:27;95050.59;;;-0.53;100.00
15050;BME280;7622;42.724;23.250;2023-01-26T01:38:55;95050.94;;;-0.42;100.00
15050;BME280;7622;42.724;23.250;2023-01-26T01:41:22;95051.06;;;-0.45;100.00
15050;BME280;7622;42.724;23.250;2023-01-26T01:43:49;95050.19;;;-0.44;100.00
15050;BME280;7622;42.724;23.250;2023-01-26T01:46:21;95056.13;;;-0.44;100.00
15050;BME280;7622;42.724;23.250;2023-01-26T01:48:56;95030.16;;;-0.72;100.00
15050;BME280;7622;42.724;23.250;2023-01-26T01:51:31;95040.25;;;-0.50;100.00
15050;BME280;7622;42.724;23.250;2023-01-26T01:54:02;95051.00;;;-0.44;100.00
15050;BME280;7622;42.724;23.250;2023-01-26T01:56:31;95038.88;;;-0.38;100.00
15050;BME280;7622;42.724;23.250;2023-01-26T01:58:59;95040.94;;;-0.47;100.00
15050;BME280;7622;42.724;23.250;2023-01-26T02:01:28;95038.88;;;-0.38;100.00
15050;BME280;7622;42.724;23.250;2023-01-26T02:03:58;95020.69;;;-0.50;100.00
15050;BME280;7622;42.724;23.250;2023-01-26T02:06:32;95013.31;;;-0.56;100.00
15050;BME280;7622;42.724;23.250;2023-01-26T02:09:00;95039.03;;;-0.42;100.00
15050;BME280;7622;42.724;23.250;2023-01-26T02:11:32;95024.88;;;-0.49;100.00
15050;BME280;7622;42.724;23.250;2023-01-26T02:14:02;95020.81;;;-0.53;100.00
15050;BME280;7622;42.724;23.250;2023-01-26T02:16:30;95021.06;;;-0.59;100.00
15050;BME280;7622;42.724;23.250;2023-01-26T02:18:57;95009.09;;;-0.57;100.00
15050;BME280;7622;42.724;23.250;2023-01-26T02:21:24;95011.72;;;-0.58;100.00
15050;BME280;7622;42.724;23.250;2023-01-26T02:24:03;95000.34;;;-0.70;100.00
15050;BME280;7622;42.724;23.250;2023-01-26T02:26:35;94995.69;;;-0.62;100.00
15050;BME280;7622;42.724;23.250;2023-01-26T02:29:03;94988.31;;;-0.68;100.00
15050;BME280;7622;42.724;23.250;2023-01-26T02:31:32;94999.41;;;-0.69;100.00
15050;BME280;7622;42.724;23.250;2023-01-26T02:33:59;94982.50;;;-0.70;100.00
15050;BME280;7622;42.724;23.250;2023-01-26T02:36:27;94982.34;;;-0.67;100.00
15050;BME280;7622;42.724;23.250;2023-01-26T02:39:01;94967.16;;;-0.89;100.00
15050;BME280;7622;42.724;23.250;2023-01-26T02:41:29;94992.59;;;-0.68;100.00
15050;BME280;7622;42.724;23.250;2023-01-26T02:44:15;94982.50;;;-0.70;100.00
15050;BME280;7622;42.724;23.250;2023-01-26T02:46:42;94982.72;;;-0.76;100.00
15050;BME280;7622;42.724;23.250;2023-01-26T02:49:08;94963.16;;;-0.75;100.00
15050;BME280;7622;42.724;23.250;2023-01-26T02:51:52;94954.69;;;-0.76;100.00
15050;BME280;7622;42.724;23.250;2023-01-26T02:54:19;94968.19;;;-0.74;100.00
15050;BME280;7622;42.724;23.250;2023-01-26T02:57:03;94961.16;;;-0.69;100.00
15050;BME280;7622;42.724;23.250;2023-01-26T02:59:31;94966.69;;;-0.78;100.00
15050;BME280;7622;42.724;23.250;2023-01-26T03:01:59;94958.22;;;-0.78;100.00
15050;BME280;7622;42.724;23.250;2023-01-26T03:04:31;94956.00;;;-0.86;100.00
15050;BME280;7622;42.724;23.250;2023-01-26T03:07:00;94949.13;;;-0.84;100.00
15050;BME280;7622;42.724;23.250;2023-01-26T03:09:26;94948.38;;;-0.86;100.00
15050;BME280;7622;42.724;23.250;2023-01-26T03:11:53;94948.97;;;-0.81;100.00
15050;BME280;7622;42.724;23.250;2023-01-26T03:14:20;94949.88;;;-0.82;100.00
15050;BME280;7622;42.724;23.250;2023-01-26T03:16:48;94943.81;;;-0.80;100.00
15050;BME280;7622;42.724;23.250;2023-01-26T03:19:15;94947.19;;;-0.79;100.00
15050;BME280;7622;42.724;23.250;2023-01-26T03:21:59;94920.44;;;-0.89;100.00
15050;BME280;7622;42.724;23.250;2023-01-26T03:24:44;94935.22;;;-0.77;100.00
15050;BME280;7622;42.724;23.250;2023-01-26T03:27:32;94928.09;;;-0.70;100.00
15050;BME280;7622;42.724;23.250;2023-01-26T03:29:59;94931.06;;;-0.80;100.00
15050;BME280;7622;42.724;23.250;2023-01-26T03:32:27;94939.75;;;-0.84;100.00
15050;BME280;7622;42.724;23.250;2023-01-26T03:34:54;94927.06;;;-0.85;100.00
15050;BME280;7622;42.724;23.250;2023-01-26T03:37:21;94929.63;;;-0.85;100.00
15050;BME280;7622;42.724;23.250;2023-01-26T03:39:48;94900.28;;;-1.12;100.00
15050;BME280;7622;42.724;23.250;2023-01-26T03:42:38;94922.38;;;-0.94;100.00
15050;BME280;7622;42.724;23.250;2023-01-26T03:45:22;94929.25;;;-0.96;100.00
15050;BME280;7622;42.724;23.250;2023-01-26T03:48:09;94918.50;;;-1.03;100.00
15050;BME280;7622;42.724;23.250;2023-01-26T03:50:54;94911.16;;;-0.90;100.00
15050;BME280;7622;42.724;23.250;2023-01-26T03:53:38;94918.44;;;-1.01;100.00
15050;BME280;7622;42.724;23.250;2023-01-26T03:56:22;94917.28;;;-0.94;100.00
15050;BME280;7622;42.724;23.250;2023-01-26T03:58:50;94909.97;;;-1.02;100.00
15050;BME280;7622;42.724;23.250;2023-01-26T04:01:18;94912.19;;;-0.94;100.00
15050;BME280;7622;42.724;23.250;2023-01-26T04:03:53;94909.22;;;-0.85;100.00
15050;BME280;7622;42.724;23.250;2023-01-26T04:06:39;94889.66;;;-0.85;100.00
15050;BME280;7622;42.724;23.250;2023-01-26T04:09:25;94913.22;;;-0.98;100.00
15050;BME280;7622;42.724;23.250;2023-01-26T04:11:52;94893.66;;;-0.98;100.00
15050;BME280;7622;42.724;23.250;2023-01-26T04:14:19;94897.72;;;-0.94;100.00
15050;BME280;7622;42.724;23.250;2023-01-26T04:17:04;94896.34;;;-1.01;100.00
15050;BME280;7622;42.724;23.250;2023-01-26T04:19:49;94879.81;;;-0.92;100.00
15050;BME280;7622;42.724;23.250;2023-01-26T04:22:34;94863.28;;;-1.02;100.00
15050;BME280;7622;42.724;23.250;2023-01-26T04:25:06;94870.03;;;-1.01;100.00
15050;BME280;7622;42.724;23.250;2023-01-26T04:27:33;94859.13;;;-0.86;100.00
15050;BME280;7622;42.724;23.250;2023-01-26T04:30:00;94851.47;;;-0.86;100.00
15050;BME280;7622;42.724;23.250;2023-01-26T04:32:27;94855.97;;;-0.91;100.00
15050;BME280;7622;42.724;23.250;2023-01-26T04:34:56;94867.38;;;-0.81;100.00
15050;BME280;7622;42.724;23.250;2023-01-26T04:37:23;94859.41;;;-0.92;100.00
15050;BME280;7622;42.724;23.250;2023-01-26T04:39:49;94860.63;;;-0.82;100.00
15050;BME280;7622;42.724;23.250;2023-01-26T04:42:16;94837.50;;;-0.96;100.00
15050;BME280;7622;42.724;23.250;2023-01-26T04:44:43;94858.72;;;-0.77;100.00
15050;BME280;7622;42.724;23.250;2023-01-26T04:47:10;94805.53;;;-1.03;100.00
15050;BME280;7622;42.724;23.250;2023-01-26T04:49:36;94870.81;;;-0.63;100.00
15050;BME280;7622;42.724;23.250;2023-01-26T04:52:04;94870.94;;;-0.66;100.00
15050;BME280;7622;42.724;23.250;2023-01-26T04:54:31;94862.47;;;-0.67;100.00
15050;BME280;7622;42.724;23.250;2023-01-26T04:56:58;94864.91;;;-0.64;100.00
15050;BME280;7622;42.724;23.250;2023-01-26T04:59:25;94870.88;;;-0.65;100.00
15050;BME280;7622;42.724;23.250;2023-01-26T05:01:51;94868.47;;;-0.68;100.00
15050;BME280;7622;42.724;23.250;2023-01-26T05:04:18;94862.28;;;-0.81;100.00
15050;BME280;7622;42.724;23.250;2023-01-26T05:06:45;94857.66;;;-0.73;100.00
15050;BME280;7622;42.724;23.250;2023-01-26T05:09:13;94872.84;;;-0.70;100.00
15050;BME280;7622;42.724;23.250;2023-01-26T05:11:40;94876.41;;;-0.74;100.00
15050;BME280;7622;42.724;23.250;2023-01-26T05:14:06;94880.13;;;-0.81;100.00
15050;BME280;7622;42.724;23.250;2023-01-26T05:16:33;94854.00;;;-0.67;100.00
15050;BME280;7622;42.724;23.250;2023-01-26T05:19:00;94866.31;;;-0.58;100.00
15050;BME280;7622;42.724;23.250;2023-01-26T05:21:27;94861.00;;;-0.54;100.00
15050;BME280;7622;42.724;23.250;2023-01-26T05:23:53;94851.97;;;-0.61;100.00
15050;BME280;7622;42.724;23.250;2023-01-26T05:26:22;94848.69;;;-0.63;100.00
15050;BME280;7622;42.724;23.250;2023-01-26T05:28:48;94854.69;;;-0.64;100.00
15050;BME280;7622;42.724;23.250;2023-01-26T05:31:15;94868.00;;;-0.76;100.00
15050;BME280;7622;42.724;23.250;2023-01-26T05:33:42;94851.44;;;-0.85;100.00
15050;BME280;7622;42.724;23.250;2023-01-26T05:36:09;94854.63;;;-0.81;100.00
15050;BME280;7622;42.724;23.250;2023-01-26T05:38:35;94849.72;;;-0.67;100.00
15050;BME280;7622;42.724;23.250;2023-01-26T05:41:02;94858.28;;;-0.68;100.00
15050;BME280;7622;42.724;23.250;2023-01-26T05:43:30;94845.53;;;-0.68;100.00
15050;BME280;7622;42.724;23.250;2023-01-26T05:45:57;94857.25;;;-0.64;100.00
15050;BME280;7622;42.724;23.250;2023-01-26T05:48:24;94848.22;;;-0.71;100.00
15050;BME280;7622;42.724;23.250;2023-01-26T05:50:50;94840.00;;;-0.59;100.00
15050;BME280;7622;42.724;23.250;2023-01-26T05:53:17;94847.66;;;-0.59;100.00
15050;BME280;7622;42.724;23.250;2023-01-26T05:55:45;94852.22;;;-0.65;100.00
15050;BME280;7622;42.724;23.250;2023-01-26T05:58:11;94851.59;;;-0.70;100.00
15050;BME280;7622;42.724;23.250;2023-01-26T06:00:39;94848.59;;;-0.61;100.00
15050;BME280;7622;42.724;23.250;2023-01-26T06:03:06;94853.41;;;-0.55;100.00
15050;BME280;7622;42.724;23.250;2023-01-26T06:05:33;94856.00;;;-0.38;100.00
15050;BME280;7622;42.724;23.250;2023-01-26T06:08:00;94843.13;;;-0.71;100.00
15050;BME280;7622;42.724;23.250;2023-01-26T06:10:26;94859.63;;;-0.61;100.00
15050;BME280;7622;42.724;23.250;2023-01-26T06:12:53;94850.59;;;-0.49;100.00
15050;BME280;7622;42.724;23.250;2023-01-26T06:15:20;94839.94;;;-0.57;100.00
15050;BME280;7622;42.724;23.250;2023-01-26T06:17:48;94835.66;;;-0.57;100.00
15050;BME280;7622;42.724;23.250;2023-01-26T06:20:15;94780.88;;;-0.84;100.00
15050;BME280;7622;42.724;23.250;2023-01-26T06:22:43;94834.94;;;-0.42;100.00
15050;BME280;7622;42.724;23.250;2023-01-26T06:25:12;94838.75;;;-0.33;100.00
15050;BME280;7622;42.724;23.250;2023-01-26T06:27:41;94826.34;;;-0.41;100.00
15050;BME280;7622;42.724;23.250;2023-01-26T06:30:09;94785.38;;;-0.55;100.00
15050;BME280;7622;42.724;23.250;2023-01-26T06:32:36;94820.44;;;-0.24;100.00
15050;BME280;7622;42.724;23.250;2023-01-26T06:35:05;94780.97;;;-0.51;100.00
15050;BME280;7622;42.724;23.250;2023-01-26T06:37:33;94827.34;;;-0.26;100.00
15050;BME280;7622;42.724;23.250;2023-01-26T06:40:00;94813.44;;;-0.20;100.00
15050;BME280;7622;42.724;23.250;2023-01-26T06:42:27;94815.41;;;-0.25;100.00
15050;BME280;7622;42.724;23.250;2023-01-26T06:44:54;94813.38;;;-0.36;100.00
15050;BME280;7622;42.724;23.250;2023-01-26T06:47:23;94769.78;;;-0.66;100.00
15050;BME280;7622;42.724;23.250;2023-01-26T06:49:50;94824.72;;;-0.42;100.00
15050;BME280;7622;42.724;23.250;2023-01-26T06:52:29;94818.50;;;-0.36;100.00
15050;BME280;7622;42.724;23.250;2023-01-26T06:54:57;94815.19;;;-0.38;100.00
15050;BME280;7622;42.724;23.250;2023-01-26T06:57:25;94811.03;;;-0.41;100.00
15050;BME280;7622;42.724;23.250;2023-01-26T06:59:52;94804.31;;;-0.42;100.00
15050;BME280;7622;42.724;23.250;2023-01-26T07:02:20;94790.63;;;-0.41;100.00
15050;BME280;7622;42.724;23.250;2023-01-26T07:04:48;94807.47;;;-0.36;100.00
15050;BME280;7622;42.724;23.250;2023-01-26T07:07:15;94801.16;;;-0.29;100.00
15050;BME280;7622;42.724;23.250;2023-01-26T07:09:44;94796.19;;;-0.15;100.00
15050;BME280;7622;42.724;23.250;2023-01-26T07:12:10;94793.66;;;-0.15;100.00
15050;BME280;7622;42.724;23.250;2023-01-26T07:14:37;94798.31;;;-0.23;100.00
15050;BME280;7622;42.724;23.250;2023-01-26T07:17:04;94807.97;;;-0.13;100.00
15050;BME280;7622;42.724;23.250;2023-01-26T07:19:31;94806.25;;;-0.12;100.00
15050;BME280;7622;42.724;23.250;2023-01-26T07:21:58;94799.47;;;-0.13;100.00
15050;BME280;7622;42.724;23.250;2023-01-26T07:24:25;94800.63;;;-0.19;100.00
15050;BME280;7622;42.724;23.250;2023-01-26T07:26:53;94792.75;;;-0.14;100.00
15050;BME280;7622;42.724;23.250;2023-01-26T07:29:20;94786.38;;;0.10;100.00
15050;BME280;7622;42.724;23.250;2023-01-26T07:31:47;94765.78;;;-0.03;100.00
15050;BME280;7622;42.724;23.250;2023-01-26T07:34:14;94773.50;;;-0.04;100.00
15050;BME280;7622;42.724;23.250;2023-01-26T07:36:42;94783.25;;;0.05;100.00
15050;BME280;7622;42.724;23.250;2023-01-26T07:39:09;94793.19;;;0.27;100.00
15050;BME280;7622;42.724;23.250;2023-01-26T07:41:35;94796.47;;;0.13;100.00
15050;BME280;7622;42.724;23.250;2023-01-26T07:44:08;94778.72;;;0.27;100.00
15050;BME280;7622;42.724;23.250;2023-01-26T07:46:35;94779.50;;;0.28;100.00
15050;BME280;7622;42.724;23.250;2023-01-26T07:49:02;94771.59;;;0.17;100.00
15050;BME280;7622;42.724;23.250;2023-01-26T07:51:28;94777.50;;;0.17;100.00
15050;BME280;7622;42.724;23.250;2023-01-26T07:53:55;94777.50;;;0.17;100.00
15050;BME280;7622;42.724;23.250;2023-01-26T07:56:23;94788.44;;;0.36;100.00
15050;BME280;7622;42.724;23.250;2023-01-26T07:58:50;94784.19;;;0.53;100.00
15050;BME280;7622;42.724;23.250;2023-01-26T08:01:18;94786.94;;;0.32;100.00
15050;BME280;7622;42.724;23.250;2023-01-26T08:03:45;94788.44;;;0.36;100.00
15050;BME280;7622;42.724;23.250;2023-01-26T08:06:15;94781.16;;;0.29;100.00
15050;BME280;7622;42.724;23.250;2023-01-26T08:08:42;94762.78;;;0.22;100.00
15050;BME280;7622;42.724;23.250;2023-01-26T08:11:10;94767.16;;;0.36;100.00
15050;BME280;7622;42.724;23.250;2023-01-26T08:13:37;94767.84;;;0.39;100.00
15050;BME280;7622;42.724;23.250;2023-01-26T08:16:05;94768.50;;;0.43;100.00
15050;BME280;7622;42.724;23.250;2023-01-26T08:18:35;94768.16;;;0.33;100.00
15050;BME280;7622;42.724;23.250;2023-01-26T08:21:02;94760.59;;;0.48;100.00
15050;BME280;7622;42.724;23.250;2023-01-26T08:23:29;94757.31;;;0.61;100.00
15050;BME280;7622;42.724;23.250;2023-01-26T08:25:59;94754.66;;;0.63;100.00
15050;BME280;7622;42.724;23.250;2023-01-26T08:28:26;94756.41;;;0.47;100.00
15050;BME280;7622;42.724;23.250;2023-01-26T08:30:53;94755.31;;;0.51;100.00
15050;BME280;7622;42.724;23.250;2023-01-26T08:33:20;94750.16;;;0.68;100.00
15050;BME280;7622;42.724;23.250;2023-01-26T08:35:48;94746.25;;;1.08;100.00
15050;BME280;7622;42.724;23.250;2023-01-26T08:38:15;94742.69;;;1.10;100.00
15050;BME280;7622;42.724;23.250;2023-01-26T08:40:41;94742.28;;;1.02;100.00
15050;BME280;7622;42.724;23.250;2023-01-26T08:43:08;94749.28;;;0.99;100.00
15050;BME280;7622;42.724;23.250;2023-01-26T08:45:35;94738.34;;;0.81;100.00
15050;BME280;7622;42.724;23.250;2023-01-26T08:48:02;94728.75;;;1.00;100.00
15050;BME280;7622;42.724;23.250;2023-01-26T08:50:29;94744.59;;;0.91;100.00
15050;BME280;7622;42.724;23.250;2023-01-26T08:52:57;94747.56;;;0.99;100.00
15050;BME280;7622;42.724;23.250;2023-01-26T08:55:24;94750.72;;;0.73;100.00
15050;BME280;7622;42.724;23.250;2023-01-26T08:57:52;94760.78;;;0.76;100.00
15050;BME280;7622;42.724;23.250;2023-01-26T09:00:22;94753.16;;;0.90;100.00
15050;BME280;7622;42.724;23.250;2023-01-26T09:02:49;94737.19;;;1.02;100.00
15050;BME280;7622;42.724;23.250;2023-01-26T09:05:16;94738.34;;;0.97;100.00
15050;BME280;7622;42.724;23.250;2023-01-26T09:07:43;94753.66;;;1.12;100.00
15050;BME280;7622;42.724;23.250;2023-01-26T09:10:11;94743.06;;;1.18;100.00
15050;BME280;7622;42.724;23.250;2023-01-26T09:12:38;94751.00;;;1.14;100.00
15050;BME280;7622;42.724;23.250;2023-01-26T09:15:06;94742.09;;;1.21;100.00
15050;BME280;7622;42.724;23.250;2023-01-26T09:17:33;94749.16;;;1.32;100.00
15050;BME280;7622;42.724;23.250;2023-01-26T09:20:00;94743.06;;;1.18;100.00
15050;BME280;7622;42.724;23.250;2023-01-26T09:22:27;94716.97;;;1.28;100.00
15050;BME280;7622;42.724;23.250;2023-01-26T09:24:55;94722.19;;;1.26;100.00
15050;BME280;7622;42.724;23.250;2023-01-26T09:27:23;94727.09;;;1.15;100.00
15050;BME280;7622;42.724;23.250;2023-01-26T09:29:50;94723.91;;;1.26;100.00
15050;BME280;7622;42.724;23.250;2023-01-26T09:32:18;94714.28;;;1.31;100.00
15050;BME280;7622;42.724;23.250;2023-01-26T09:34:44;94730.31;;;1.33;100.00
15050;BME280;7622;42.724;23.250;2023-01-26T09:37:11;94699.63;;;1.33;100.00
15050;BME280;7622;42.724;23.250;2023-01-26T09:39:38;94694.34;;;1.36;100.00
15050;BME280;7622;42.724;23.250;2023-01-26T09:42:28;94697.66;;;1.38;100.00
15050;BME280;7622;42.724;23.250;2023-01-26T09:45:13;94697.56;;;1.09;100.00
15050;BME280;7622;42.724;23.250;2023-01-26T09:47:54;94715.03;;;1.17;100.00
15050;BME280;7622;42.724;23.250;2023-01-26T09:50:28;94711.13;;;1.26;100.00
15050;BME280;7622;42.724;23.250;2023-01-26T09:52:59;94695.78;;;1.26;100.00
15050;BME280;7622;42.724;23.250;2023-01-26T09:55:28;94690.50;;;1.29;100.00
15050;BME280;7622;42.724;23.250;2023-01-26T09:57:59;94682.44;;;1.21;100.00
15050;BME280;7622;42.724;23.250;2023-01-26T10:00:30;94666.53;;;1.15;100.00
15050;BME280;7622;42.724;23.250;2023-01-26T10:03:11;94682.34;;;1.22;100.00
15050;BME280;7622;42.724;23.250;2023-01-26T10:05:46;94693.06;;;1.29;100.00
15050;BME280;7622;42.724;23.250;2023-01-26T10:08:17;94683.28;;;1.35;100.00
15050;BME280;7622;42.724;23.250;2023-01-26T10:10:49;94680.91;;;1.32;100.00
15050;BME280;7622;42.724;23.250;2023-01-26T10:13:20;94686.13;;;1.31;100.00
15050;BME280;7622;42.724;23.250;2023-01-26T10:15:51;94679.03;;;1.20;100.00
15050;BME280;7622;42.724;23.250;2023-01-26T10:18:23;94660.88;;;1.25;100.00
15050;BME280;7622;42.724;23.250;2023-01-26T10:20:53;94674.06;;;1.47;100.00
15050;BME280;7622;42.724;23.250;2023-01-26T10:23:23;94655.63;;;1.56;100.00
15050;BME280;7622;42.724;23.250;2023-01-26T10:25:52;94647.84;;;1.43;100.00
15050;BME280;7622;42.724;23.250;2023-01-26T10:28:27;94535.66;;;0.79;100.00
15050;BME280;7622;42.724;23.250;2023-01-26T10:30:55;94630.19;;;1.39;100.00
15050;BME280;7622;42.724;23.250;2023-01-26T10:33:25;94624.38;;;1.37;100.00
15050;BME280;7622;42.724;23.250;2023-01-26T10:35:53;94617.59;;;1.36;100.00
15050;BME280;7622;42.724;23.250;2023-01-26T10:38:40;94619.63;;;1.31;100.00
15050;BME280;7622;42.724;23.250;2023-01-26T10:41:22;94600.41;;;1.24;100.00
15050;BME280;7622;42.724;23.250;2023-01-26T10:43:52;94596.44;;;1.18;100.00
15050;BME280;7622;42.724;23.250;2023-01-26T10:46:28;94572.28;;;1.24;100.00
15050;BME280;7622;42.724;23.250;2023-01-26T10:48:57;94579.47;;;1.45;100.00
15050;BME280;7622;42.724;23.250;2023-01-26T10:51:27;94577.75;;;1.46;100.00
15050;BME280;7622;42.724;23.250;2023-01-26T10:54:12;94583.88;;;1.57;100.00
15050;BME280;7622;42.724;23.250;2023-01-26T10:56:43;94578.69;;;1.45;100.00
15050;BME280;7622;42.724;23.250;2023-01-26T10:59:19;94578.56;;;1.46;100.00
15050;BME280;7622;42.724;23.250;2023-01-26T11:01:53;94568.72;;;1.40;100.00
15050;BME280;7622;42.724;23.250;2023-01-26T11:04:20;94553.28;;;1.56;100.00
15050;BME280;7622;42.724;23.250;2023-01-26T11:06:47;94552.34;;;1.43;100.00
15050;BME280;7622;42.724;23.250;2023-01-26T11:09:19;94545.22;;;1.48;100.00
15050;BME280;7622;42.724;23.250;2023-01-26T11:12:00;94512.16;;;1.45;100.00
15050;BME280;7622;42.724;23.250;2023-01-26T11:14:31;94536.81;;;1.46;100.00
15050;BME280;7622;42.724;23.250;2023-01-26T11:17:04;94537.75;;;1.45;100.00
15050;BME280;7622;42.724;23.250;2023-01-26T11:19:46;94517.63;;;1.53;100.00
15050;BME280;7622;42.724;23.250;2023-01-26T11:22:18;94517.25;;;1.59;100.00
15050;BME280;7622;42.724;23.250;2023-01-26T11:24:58;94514.47;;;1.76;100.00
15050;BME280;7622;42.724;23.250;2023-01-26T11:27:39;94500.81;;;1.90;100.00
15050;BME280;7622;42.724;23.250;2023-01-26T11:30:27;94493.81;;;1.79;100.00
15050;BME280;7622;42.724;23.250;2023-01-26T11:33:02;94491.22;;;1.93;100.00
15050;BME280;7622;42.724;23.250;2023-01-26T11:35:39;94489.41;;;1.81;100.00
15050;BME280;7622;42.724;23.250;2023-01-26T11:38:37;94417.13;;;1.37;100.00
15050;BME280;7622;42.724;23.250;2023-01-26T11:41:18;94476.91;;;1.77;100.00
15050;BME280;7622;42.724;23.250;2023-01-26T11:46:55;94463.81;;;1.81;100.00
15050;BME280;7622;42.724;23.250;2023-01-26T11:49:37;94472.56;;;1.91;100.00
15050;BME280;7622;42.724;23.250;2023-01-26T11:52:12;94472.34;;;1.94;100.00
15050;BME280;7622;42.724;23.250;2023-01-26T11:54:57;94486.28;;;1.90;100.00
15050;BME280;7622;42.724;23.250;2023-01-26T11:57:32;94480.06;;;1.80;100.00
15050;BME280;7622;42.724;23.250;2023-01-26T12:00:10;94493.56;;;1.70;100.00
15050;BME280;7622;42.724;23.250;2023-01-26T12:02:42;94468.00;;;1.82;100.00
15050;BME280;7622;42.724;23.250;2023-01-26T12:05:14;94458.03;;;1.92;100.00
15050;BME280;7622;42.724;23.250;2023-01-26T12:07:47;94448.91;;;2.01;100.00
15050;BME280;7622;42.724;23.250;2023-01-26T12:10:22;94445.56;;;2.00;100.00
15050;BME280;7622;42.724;23.250;2023-01-26T12:12:54;94432.38;;;1.79;100.00
15050;BME280;7622;42.724;23.250;2023-01-26T12:15:27;94449.25;;;1.82;100.00
15050;BME280;7622;42.724;23.250;2023-01-26T12:18:05;94425.06;;;1.73;100.00
15050;BME280;7622;42.724;23.250;2023-01-26T12:20:39;94437.00;;;1.87;100.00
15050;BME280;7622;42.724;23.250;2023-01-26T12:23:12;94418.31;;;1.72;100.00
15050;BME280;7622;42.724;23.250;2023-01-26T12:31:57;94403.25;;;1.27;100.00
15050;BME280;7622;42.724;23.250;2023-01-26T12:34:28;94408.63;;;1.36;100.00
15050;BME280;7622;42.724;23.250;2023-01-26T12:37:06;94409.25;;;1.40;100.00
15050;BME280;7622;42.724;23.250;2023-01-26T12:39:43;94400.16;;;1.22;100.00
15050;BME280;7622;42.724;23.250;2023-01-26T12:42:18;94394.31;;;1.19;100.00
15050;BME280;7622;42.724;23.250;2023-01-26T12:44:52;94407.31;;;1.16;100.00
15050;BME280;7622;42.724;23.250;2023-01-26T12:47:26;94418.22;;;1.33;100.00
15050;BME280;7622;42.724;23.250;2023-01-26T12:49:59;94407.09;;;1.19;100.00
15050;BME280;7622;42.724;23.250;2023-01-26T12:52:33;94398.00;;;1.15;100.00
15050;BME280;7622;42.724;23.250;2023-01-26T12:55:09;94400.59;;;1.28;100.00
15050;BME280;7622;42.724;23.250;2023-01-26T12:57:43;94393.91;;;1.40;100.00
15050;BME280;7622;42.724;23.250;2023-01-26T13:00:18;94388.41;;;1.46;100.00
15050;BME280;7622;42.724;23.250;2023-01-26T13:02:51;94396.00;;;1.47;100.00
15050;BME280;7622;42.724;23.250;2023-01-26T13:05:26;94386.56;;;1.48;100.00
15050;BME280;7622;42.724;23.250;2023-01-26T13:07:53;94381.97;;;1.53;100.00
15050;BME280;7622;42.724;23.250;2023-01-26T13:10:28;94355.81;;;1.35;100.00
15050;BME280;7622;42.724;23.250;2023-01-26T13:12:58;94385.97;;;1.44;100.00
15050;BME280;7622;42.724;23.250;2023-01-26T13:15:27;94363.59;;;1.34;100.00
15050;BME280;7622;42.724;23.250;2023-01-26T13:18:00;94389.34;;;1.45;100.00
15050;BME280;7622;42.724;23.250;2023-01-26T13:20:40;94382.72;;;1.55;100.00
15050;BME280;7622;42.724;23.250;2023-01-26T13:23:39;94381.19;;;1.79;100.00
15050;BME280;7622;42.724;23.250;2023-01-26T13:26:18;94390.16;;;1.72;100.00